createdAt,value
2018-05-15T00:00:39.061Z,12.33
2018-05-15T00:03:06.585Z,13.17
2018-05-15T00:05:34.152Z,14.50
2018-05-15T00:08:02.445Z,13.80
2018-05-15T00:10:30.765Z,13.07
2018-05-15T00:12:58.299Z,22.13
2018-05-15T00:15:25.863Z,18.73
2018-05-15T00:17:54.606Z,20.27
2018-05-15T00:20:22.147Z,17.43
2018-05-15T00:22:49.686Z,19.57
2018-05-15T00:25:17.241Z,18.33
2018-05-15T00:27:44.806Z,19.70
2018-05-15T00:30:12.368Z,16.80
2018-05-15T00:32:41.861Z,17.87
2018-05-15T00:35:09.424Z,19.57
2018-05-15T00:37:36.984Z,20.37
2018-05-15T00:40:04.557Z,24.43
2018-05-15T00:42:32.093Z,30.47
2018-05-15T00:44:59.651Z,22.20
2018-05-15T00:47:28.629Z,23.20
2018-05-15T00:49:56.226Z,27.53
2018-05-15T00:52:23.756Z,25.87
2018-05-15T00:54:51.297Z,26.90
2018-05-15T00:57:18.859Z,25.67
2018-05-15T00:59:46.387Z,36.87
2018-05-15T01:02:13.941Z,28.03
2018-05-15T01:04:41.477Z,72.60
2018-05-15T01:07:09.042Z,26.57
2018-05-15T01:09:37.527Z,21.97
2018-05-15T01:12:05.060Z,18.80
2018-05-15T01:14:32.613Z,20.93
2018-05-15T01:17:00.141Z,20.80
2018-05-15T01:19:28.466Z,22.20
2018-05-15T01:21:55.990Z,18.07
2018-05-15T01:24:23.550Z,16.60
2018-05-15T01:26:51.077Z,18.00
2018-05-15T01:29:18.598Z,17.90
2018-05-15T01:31:46.161Z,21.20
2018-05-15T01:34:13.692Z,18.60
2018-05-15T01:36:41.253Z,18.97
2018-05-15T01:39:08.789Z,18.87
2018-05-15T01:41:36.313Z,29.50
2018-05-15T01:44:03.872Z,20.73
2018-05-15T01:46:31.414Z,22.50
2018-05-15T01:49:00.017Z,26.00
2018-05-15T01:51:27.550Z,20.50
2018-05-15T01:53:55.129Z,26.20
2018-05-15T01:56:22.685Z,18.23
2018-05-15T01:58:50.259Z,19.73
2018-05-15T02:01:18.547Z,21.40
2018-05-15T02:03:46.843Z,19.40
2018-05-15T02:06:14.397Z,17.70
2018-05-15T02:08:41.943Z,15.03
2018-05-15T02:11:09.514Z,42.53
2018-05-15T02:13:37.805Z,18.13
2018-05-15T02:16:05.363Z,22.33
2018-05-15T02:18:32.918Z,22.20
2018-05-15T02:21:00.488Z,28.70
2018-05-15T02:23:28.046Z,27.70
2018-05-15T02:25:55.623Z,38.83
2018-05-15T02:28:23.145Z,28.27
2018-05-15T02:30:51.454Z,21.40
2018-05-15T02:33:19.029Z,41.43
2018-05-15T02:35:46.602Z,28.47
2018-05-15T02:38:14.163Z,61.57
2018-05-15T02:40:41.702Z,34.70
2018-05-15T02:43:10.204Z,22.27
2018-05-15T02:45:38.537Z,56.03
2018-05-15T02:48:06.068Z,54.33
2018-05-15T02:50:33.628Z,27.43
2018-05-15T02:53:03.125Z,81.30
2018-05-15T02:55:31.422Z,32.73
2018-05-15T02:57:59.114Z,42.57
2018-05-15T03:00:26.700Z,30.20
2018-05-15T03:02:54.253Z,36.83
2018-05-15T03:05:21.819Z,29.30
2018-05-15T03:07:50.143Z,42.33
2018-05-15T03:10:17.672Z,36.00
2018-05-15T03:12:45.972Z,35.27
2018-05-15T03:15:15.217Z,34.07
2018-05-15T03:17:42.757Z,48.00
2018-05-15T03:20:10.281Z,71.30
2018-05-15T03:22:38.602Z,58.23
2018-05-15T03:25:06.133Z,46.57
2018-05-15T03:27:33.704Z,84.50
2018-05-15T03:30:01.265Z,55.13
2018-05-15T03:32:28.798Z,53.08
2018-05-15T03:34:57.102Z,138.00
2018-05-15T03:37:24.673Z,68.87
2018-05-15T03:39:52.201Z,135.13
2018-05-15T03:42:19.760Z,81.07
2018-05-15T03:44:47.335Z,145.13
2018-05-15T03:47:14.902Z,86.40
2018-05-15T03:49:42.557Z,89.57
2018-05-15T03:52:10.129Z,155.17
2018-05-15T03:54:37.681Z,258.30
2018-05-15T03:57:05.217Z,138.37
2018-05-15T03:59:32.745Z,104.30
2018-05-15T04:02:12.249Z,119.27
2018-05-15T04:04:51.636Z,79.47
2018-05-15T04:07:31.041Z,49.33
2018-05-15T04:09:59.581Z,39.13
2018-05-15T04:12:27.112Z,49.87
2018-05-15T04:14:55.439Z,36.50
2018-05-15T04:17:22.998Z,68.57
2018-05-15T04:19:50.558Z,47.93
2018-05-15T04:22:18.085Z,44.90
2018-05-15T04:24:45.622Z,39.40
2018-05-15T04:27:13.185Z,37.83
2018-05-15T04:29:41.806Z,42.60
2018-05-15T04:32:09.409Z,38.60
2018-05-15T04:34:37.917Z,37.73
2018-05-15T04:37:05.453Z,38.30
2018-05-15T04:39:33.017Z,39.70
2018-05-15T04:42:01.345Z,38.43
2018-05-15T04:44:28.919Z,37.57
2018-05-15T04:46:56.453Z,41.20
2018-05-15T04:49:24.068Z,38.30
2018-05-15T04:51:51.562Z,39.70
2018-05-15T04:54:19.093Z,32.57
2018-05-15T04:56:47.412Z,29.13
2018-05-15T04:59:14.941Z,33.47
2018-05-15T05:01:42.506Z,34.37
2018-05-15T05:04:11.020Z,32.10
2018-05-15T05:06:38.621Z,33.00
2018-05-15T05:09:06.144Z,34.27
2018-05-15T05:11:35.658Z,34.10
2018-05-15T05:14:03.225Z,37.13
2018-05-15T05:16:30.758Z,32.00
2018-05-15T05:18:58.338Z,36.33
2018-05-15T05:21:25.869Z,30.33
2018-05-15T05:23:53.529Z,34.23
2018-05-15T05:26:21.070Z,31.33
2018-05-15T05:28:48.601Z,32.70
2018-05-15T05:31:16.172Z,34.33
2018-05-15T05:33:44.581Z,30.97
2018-05-15T05:36:13.123Z,30.50
2018-05-15T05:38:41.632Z,34.40
2018-05-15T05:41:09.190Z,43.30
2018-05-15T05:43:36.718Z,28.43
2018-05-15T05:46:06.217Z,30.43
2018-05-15T05:48:34.698Z,33.40
2018-05-15T05:51:04.172Z,35.73
2018-05-15T05:53:31.734Z,30.17
2018-05-15T05:55:59.272Z,32.80
2018-05-15T05:58:26.831Z,27.63
2018-05-15T06:00:54.398Z,27.93
2018-05-15T06:03:21.967Z,26.50
2018-05-15T06:05:49.510Z,37.50
2018-05-15T06:08:19.056Z,26.47
2018-05-15T06:10:47.387Z,29.10
2018-05-15T06:13:14.924Z,31.27
2018-05-15T06:15:43.245Z,38.30
2018-05-15T06:18:10.803Z,32.43
2018-05-15T06:20:38.413Z,35.47
2018-05-15T06:23:06.686Z,32.40
2018-05-15T06:25:34.236Z,38.37
2018-05-15T06:28:01.795Z,35.50
2018-05-15T06:30:29.329Z,41.33
2018-05-15T06:32:56.904Z,33.43
2018-05-15T06:35:24.524Z,33.90
2018-05-15T06:37:52.079Z,31.67
2018-05-15T06:40:19.786Z,28.60
2018-05-15T06:42:47.354Z,29.00
2018-05-15T06:45:14.884Z,24.80
2018-05-15T06:47:42.414Z,25.20
2018-05-15T06:50:10.181Z,29.20
2018-05-15T06:52:37.845Z,26.50
2018-05-15T06:55:05.609Z,29.13
2018-05-15T06:57:33.170Z,29.60
2018-05-15T07:00:00.736Z,28.17
2018-05-15T07:02:28.285Z,26.73
2018-05-15T07:04:55.845Z,28.00
2018-05-15T07:07:23.388Z,28.83
2018-05-15T07:09:51.176Z,29.90
2018-05-15T07:12:18.736Z,24.83
2018-05-15T07:14:46.265Z,27.33
2018-05-15T07:17:13.825Z,21.50
2018-05-15T07:19:41.352Z,21.67
2018-05-15T07:22:09.692Z,24.60
2018-05-15T07:24:38.184Z,19.83
2018-05-15T07:27:05.737Z,19.85
2018-05-15T07:29:33.301Z,19.50
2018-05-15T07:32:00.849Z,18.53
2018-05-15T07:34:28.423Z,17.37
2018-05-15T07:36:56.003Z,20.60
2018-05-15T07:39:23.573Z,21.07
2018-05-15T07:41:51.124Z,21.30
2018-05-15T07:44:18.690Z,23.60
2018-05-15T07:46:46.219Z,25.17
2018-05-15T07:49:15.759Z,23.00
2018-05-15T07:51:44.244Z,22.50
2018-05-15T07:54:11.794Z,24.13
2018-05-15T07:56:39.328Z,22.67
2018-05-15T07:59:06.861Z,21.47
2018-05-15T08:01:34.445Z,29.20
2018-05-15T08:04:01.984Z,24.93
2018-05-15T08:06:29.550Z,26.03
2018-05-15T08:08:57.082Z,26.23
2018-05-15T08:11:24.632Z,33.17
2018-05-15T08:13:52.157Z,29.00
2018-05-15T08:16:19.816Z,26.63
2018-05-15T08:18:47.313Z,27.50
2018-05-15T08:21:14.879Z,27.03
2018-05-15T08:23:42.433Z,26.53
2018-05-15T08:26:09.966Z,27.13
2018-05-15T08:28:38.292Z,23.80
2018-05-15T08:31:05.907Z,26.13
2018-05-15T08:33:34.454Z,24.80
2018-05-15T08:36:01.990Z,27.50
2018-05-15T08:38:29.532Z,24.20
2018-05-15T08:40:57.205Z,27.73
2018-05-15T08:43:24.732Z,25.37
2018-05-15T08:45:52.285Z,22.00
2018-05-15T08:48:20.584Z,23.93
2018-05-15T08:50:48.117Z,23.23
2018-05-15T08:53:15.681Z,21.00
2018-05-15T08:55:43.250Z,28.10
2018-05-15T08:58:12.738Z,19.40
2018-05-15T09:00:40.265Z,19.27
2018-05-15T09:03:07.819Z,22.60
2018-05-15T09:05:35.370Z,21.90
2018-05-15T09:08:02.929Z,20.47
2018-05-15T09:10:31.425Z,19.30
2018-05-15T09:12:58.981Z,17.80
2018-05-15T09:15:27.493Z,16.83
2018-05-15T09:17:55.831Z,18.73
2018-05-15T09:20:23.393Z,17.80
2018-05-15T09:22:50.958Z,17.00
2018-05-15T09:25:18.496Z,18.43
2018-05-15T09:27:46.039Z,20.80
2018-05-15T09:30:13.606Z,20.30
2018-05-15T09:32:41.175Z,18.03
2018-05-15T09:35:08.734Z,18.87
2018-05-15T09:37:36.276Z,19.13
2018-05-15T09:40:03.995Z,18.97
2018-05-15T09:42:31.569Z,20.90
2018-05-15T09:44:59.159Z,21.40
2018-05-15T09:47:26.710Z,21.33
2018-05-15T09:49:54.281Z,19.10
2018-05-15T09:52:21.929Z,19.43
2018-05-15T09:54:49.494Z,20.63
2018-05-15T09:57:17.037Z,22.90
2018-05-15T09:59:45.332Z,22.70
2018-05-15T10:02:12.897Z,20.67
2018-05-15T10:04:40.473Z,24.93
2018-05-15T10:07:08.170Z,18.60
2018-05-15T10:09:35.820Z,25.17
2018-05-15T10:12:03.747Z,20.20
2018-05-15T10:14:32.253Z,23.03
2018-05-15T10:17:01.228Z,20.47
2018-05-15T10:19:30.152Z,21.10
2018-05-15T10:21:59.799Z,19.40
2018-05-15T10:24:29.178Z,20.87
2018-05-15T10:26:57.645Z,20.80
2018-05-15T10:29:25.210Z,17.47
2018-05-15T10:31:52.745Z,27.23
2018-05-15T10:34:20.302Z,19.67
2018-05-15T10:36:47.833Z,17.30
2018-05-15T10:39:15.373Z,18.60
2018-05-15T10:41:42.937Z,20.40
2018-05-15T10:44:12.206Z,15.03
2018-05-15T10:46:41.728Z,15.93
2018-05-15T10:49:09.278Z,19.73
2018-05-15T10:51:36.837Z,16.73
2018-05-15T10:54:04.358Z,19.43
2018-05-15T10:56:31.909Z,19.33
2018-05-15T10:58:59.430Z,21.60
2018-05-15T11:01:26.957Z,23.10
2018-05-15T11:03:54.513Z,20.13
2018-05-15T11:06:22.046Z,18.02
2018-05-15T11:08:49.601Z,18.50
2018-05-15T11:11:17.141Z,25.80
2018-05-15T11:13:46.675Z,18.53
2018-05-15T11:16:14.242Z,21.60
2018-05-15T11:18:41.824Z,16.30
2018-05-15T11:21:21.221Z,18.33
2018-05-15T11:26:50.591Z,17.45
2018-05-15T11:29:19.633Z,21.37
2018-05-15T11:31:47.169Z,20.00
2018-05-15T11:34:15.229Z,19.77
2018-05-15T11:36:43.569Z,20.13
2018-05-15T11:39:11.918Z,23.30
2018-05-15T11:41:39.507Z,20.10
2018-05-15T11:44:07.045Z,19.20
2018-05-15T11:46:35.541Z,20.40
2018-05-15T11:49:03.943Z,17.00
2018-05-15T11:51:31.569Z,20.43
2018-05-15T11:53:58.297Z,18.33
2018-05-15T11:56:25.856Z,21.07
2018-05-15T11:58:54.389Z,18.73
2018-05-15T12:01:21.924Z,27.93
2018-05-15T12:03:49.550Z,19.37
2018-05-15T12:06:17.074Z,25.93
2018-05-15T12:08:44.637Z,21.90
2018-05-15T12:11:12.941Z,17.93
2018-05-15T12:13:40.473Z,21.90
2018-05-15T12:16:08.934Z,21.30
2018-05-15T12:18:36.493Z,22.40
2018-05-15T12:21:04.102Z,19.40
2018-05-15T12:23:32.593Z,23.97
2018-05-15T12:26:00.158Z,21.97
2018-05-15T12:28:27.682Z,22.70
2018-05-15T12:30:56.022Z,21.80
2018-05-15T12:33:23.551Z,26.10
2018-05-15T12:35:51.138Z,18.23
2018-05-15T12:38:18.670Z,23.13
2018-05-15T12:40:47.418Z,17.33
2018-05-15T12:43:15.941Z,25.33
2018-05-15T12:45:44.432Z,23.27
2018-05-15T12:48:12.026Z,16.77
2018-05-15T12:50:39.544Z,26.63
2018-05-15T12:53:07.089Z,22.13
2018-05-15T12:55:34.648Z,22.23
2018-05-15T12:58:02.190Z,29.40
2018-05-15T13:00:29.742Z,23.23
2018-05-15T13:02:58.039Z,31.57
2018-05-15T13:05:25.606Z,27.47
2018-05-15T13:07:54.103Z,26.80
2018-05-15T13:10:21.645Z,28.47
2018-05-15T13:12:49.205Z,32.90
2018-05-15T13:15:16.746Z,27.93
2018-05-15T13:17:44.299Z,31.73
2018-05-15T13:20:11.828Z,46.67
2018-05-15T13:22:39.387Z,39.90
2018-05-15T13:25:07.899Z,32.00
2018-05-15T13:27:35.444Z,46.33
2018-05-15T13:30:03.769Z,37.40
2018-05-15T13:32:31.314Z,33.20
2018-05-15T13:34:58.880Z,28.80
2018-05-15T13:37:26.416Z,30.03
2018-05-15T13:39:53.963Z,32.10
2018-05-15T13:42:21.518Z,31.30
2018-05-15T13:44:49.807Z,32.93
2018-05-15T13:47:17.361Z,27.27
2018-05-15T13:49:44.890Z,25.30
2018-05-15T13:52:13.444Z,24.60
2018-05-15T13:54:41.002Z,23.27
2018-05-15T13:57:08.571Z,33.33
2018-05-15T13:59:36.092Z,24.90
2018-05-15T14:02:12.134Z,23.17
2018-05-15T14:04:41.437Z,22.40
2018-05-15T14:07:09.030Z,34.73
2018-05-15T14:09:37.566Z,24.80
2018-05-15T14:12:05.876Z,30.60
2018-05-15T14:14:33.435Z,18.50
2018-05-15T14:17:00.986Z,15.87
2018-05-15T14:19:28.557Z,15.90
2018-05-15T14:21:56.081Z,15.73
2018-05-15T14:24:24.399Z,14.60
2018-05-15T14:26:51.938Z,14.40
2018-05-15T14:29:19.471Z,16.87
2018-05-15T14:31:47.797Z,12.90
2018-05-15T14:34:15.320Z,15.60
2018-05-15T14:36:43.645Z,26.30
2018-05-15T14:39:11.176Z,13.53
2018-05-15T14:41:50.629Z,19.30
2018-05-15T14:44:18.153Z,16.03
2018-05-15T14:46:46.660Z,18.53
2018-05-15T14:49:14.182Z,11.00
2018-05-15T14:51:43.417Z,12.40
2018-05-15T14:54:10.972Z,10.80
2018-05-15T14:56:38.508Z,15.97
2018-05-15T14:59:06.826Z,10.70
2018-05-15T15:01:34.361Z,16.77
2018-05-15T15:04:01.916Z,20.20
2018-05-15T15:06:29.447Z,17.33
2018-05-15T15:08:57.770Z,14.00
2018-05-15T15:11:25.329Z,12.83
2018-05-15T15:13:52.844Z,11.43
2018-05-15T15:16:21.157Z,17.73
2018-05-15T15:18:48.685Z,26.60
2018-05-15T15:21:16.228Z,16.67
2018-05-15T15:23:44.702Z,13.33
2018-05-15T15:26:12.420Z,20.40
2018-05-15T15:28:39.974Z,18.83
2018-05-15T15:31:07.501Z,17.40
2018-05-15T15:33:35.820Z,24.70
2018-05-15T15:36:03.364Z,20.90
2018-05-15T15:38:30.948Z,31.83
2018-05-15T15:40:58.595Z,20.87
2018-05-15T15:43:28.882Z,25.67
2018-05-15T15:45:57.180Z,24.33
2018-05-15T15:48:24.741Z,11.70
2018-05-15T15:50:52.312Z,16.10
2018-05-15T15:53:19.860Z,14.73
2018-05-15T15:55:47.444Z,16.67
2018-05-15T15:58:14.978Z,13.70
2018-05-15T16:00:42.527Z,14.60
2018-05-15T16:03:10.055Z,12.53
2018-05-15T16:05:37.609Z,13.53
2018-05-15T16:08:05.141Z,22.63
2018-05-15T16:10:32.701Z,9.00
2018-05-15T16:13:00.250Z,12.33
2018-05-15T16:15:27.775Z,14.97
2018-05-15T16:17:55.342Z,9.13
2018-05-15T16:20:23.759Z,10.80
2018-05-15T16:22:51.403Z,12.93
2018-05-15T16:25:18.919Z,11.60
2018-05-15T16:27:48.425Z,11.40
2018-05-15T16:30:15.953Z,15.80
2018-05-15T16:32:43.481Z,9.53
2018-05-15T16:35:11.048Z,14.93
2018-05-15T16:37:38.656Z,9.87
2018-05-15T16:40:07.113Z,12.80
2018-05-15T16:42:35.598Z,15.50
2018-05-15T16:45:03.157Z,11.00
2018-05-15T16:47:30.730Z,9.57
2018-05-15T16:49:58.233Z,12.20
2018-05-15T16:52:25.797Z,15.10
2018-05-15T16:54:53.321Z,8.40
2018-05-15T16:57:20.868Z,8.53
2018-05-15T16:59:48.389Z,10.30
2018-05-15T17:02:16.841Z,8.20
2018-05-15T17:04:44.394Z,10.40
2018-05-15T17:07:12.105Z,7.62
2018-05-15T17:09:39.673Z,11.23
2018-05-15T17:12:07.197Z,8.60
2018-05-15T17:14:34.755Z,11.63
2018-05-15T17:17:02.290Z,10.80
2018-05-15T17:19:29.842Z,10.70
2018-05-15T17:21:57.994Z,12.30
2018-05-15T17:24:26.330Z,15.43
2018-05-15T17:26:53.858Z,11.10
2018-05-15T17:29:21.388Z,13.33
2018-05-15T17:31:49.710Z,12.57
2018-05-15T17:34:17.285Z,13.63
2018-05-15T17:36:45.790Z,16.43
2018-05-15T17:39:13.341Z,17.00
2018-05-15T17:41:41.833Z,29.00
2018-05-15T17:44:09.415Z,23.13
2018-05-15T17:46:38.911Z,14.87
2018-05-15T17:49:06.470Z,12.30
2018-05-15T17:51:36.760Z,12.80
2018-05-15T17:54:04.356Z,15.43
2018-05-15T17:56:31.880Z,19.33
2018-05-15T17:58:59.428Z,10.47
2018-05-15T18:01:27.031Z,14.50
2018-05-15T18:03:54.585Z,16.03
2018-05-15T18:06:22.108Z,12.30
2018-05-15T18:08:49.644Z,10.97
2018-05-15T18:11:18.192Z,8.30
2018-05-15T18:13:45.718Z,12.63
2018-05-15T18:16:13.281Z,11.33
2018-05-15T18:18:40.842Z,10.73
2018-05-15T18:21:08.467Z,14.73
2018-05-15T18:23:35.946Z,13.00
2018-05-15T18:26:03.583Z,12.03
2018-05-15T18:28:31.147Z,14.13
2018-05-15T18:30:58.793Z,11.60
2018-05-15T18:33:26.356Z,14.43
2018-05-15T18:35:53.892Z,10.67
2018-05-15T18:38:22.226Z,14.63
2018-05-15T18:40:49.791Z,19.37
2018-05-15T18:43:17.336Z,10.17
2018-05-15T18:45:45.888Z,21.70
2018-05-15T18:48:13.437Z,8.90
2018-05-15T18:50:40.969Z,20.90
2018-05-15T18:53:09.127Z,11.13
2018-05-15T18:55:37.546Z,15.43
2018-05-15T18:58:05.163Z,13.07
2018-05-15T19:00:32.725Z,12.33
2018-05-15T19:03:00.249Z,11.13
2018-05-15T19:05:27.797Z,13.90
2018-05-15T19:07:55.401Z,14.20
2018-05-15T19:10:22.913Z,13.63
2018-05-15T19:12:51.433Z,10.30
2018-05-15T19:15:18.981Z,10.83
2018-05-15T19:17:46.498Z,12.47
2018-05-15T19:20:14.866Z,9.88
2018-05-15T19:22:43.363Z,12.77
2018-05-15T19:25:10.885Z,11.57
2018-05-15T19:27:40.377Z,29.40
2018-05-15T19:30:07.904Z,10.20
2018-05-15T19:32:38.415Z,16.67
2018-05-15T19:35:07.892Z,11.07
2018-05-15T19:37:35.425Z,10.73
2018-05-15T19:40:08.649Z,10.23
2018-05-15T19:42:36.198Z,14.30
2018-05-15T19:45:03.740Z,10.80
2018-05-15T19:47:32.117Z,11.37
2018-05-15T19:49:59.650Z,6.90
2018-05-15T19:52:27.235Z,7.20
2018-05-15T19:54:55.765Z,11.40
2018-05-15T19:57:23.301Z,14.33
2018-05-15T19:59:50.851Z,13.33
2018-05-15T20:02:18.375Z,15.30
2018-05-15T20:04:45.933Z,7.30
2018-05-15T20:07:13.458Z,15.93
2018-05-15T20:09:41.768Z,21.33
2018-05-15T20:12:10.286Z,7.87
2018-05-15T20:14:38.152Z,11.00
2018-05-15T20:17:05.707Z,11.40
2018-05-15T20:19:33.940Z,9.40
2018-05-15T20:22:01.479Z,12.93
2018-05-15T20:24:29.011Z,12.73
2018-05-15T20:26:56.581Z,14.67
2018-05-15T20:29:25.115Z,9.90
2018-05-15T20:31:52.670Z,11.00
2018-05-15T20:34:20.225Z,17.53
2018-05-15T20:36:47.760Z,14.73
2018-05-15T20:39:16.180Z,9.80
2018-05-15T20:41:46.076Z,8.73
2018-05-15T20:44:13.598Z,11.30
2018-05-15T20:46:41.148Z,6.53
2018-05-15T20:49:08.669Z,9.03
2018-05-15T20:51:36.193Z,10.10
2018-05-15T20:54:03.738Z,9.63
2018-05-15T20:56:32.225Z,9.10
2018-05-15T20:58:59.774Z,11.83
2018-05-15T21:01:28.065Z,14.68
2018-05-15T21:03:55.623Z,8.17
2018-05-15T21:06:23.159Z,7.27
2018-05-15T21:08:50.718Z,11.83
2018-05-15T21:11:20.223Z,9.17
2018-05-15T21:13:47.774Z,9.40
2018-05-15T21:16:16.089Z,11.53
2018-05-15T21:18:43.640Z,8.90
2018-05-15T21:21:11.194Z,14.10
2018-05-15T21:23:39.504Z,7.00
2018-05-15T21:26:07.259Z,9.30
2018-05-15T21:28:34.805Z,9.47
2018-05-15T21:31:02.358Z,7.10
2018-05-15T21:33:31.863Z,12.10
2018-05-15T21:35:59.418Z,9.90
2018-05-15T21:38:28.037Z,9.30
2018-05-15T21:40:55.609Z,12.27
2018-05-15T21:43:23.142Z,11.80
2018-05-15T21:45:50.701Z,8.90
2018-05-15T21:48:18.225Z,11.40
2018-05-15T21:50:47.575Z,8.40
2018-05-15T21:53:15.141Z,10.50
2018-05-15T21:55:42.664Z,9.50
2018-05-15T21:58:10.185Z,6.80
2018-05-15T22:00:37.988Z,7.40
2018-05-15T22:03:05.571Z,8.83
2018-05-15T22:05:33.124Z,13.43
2018-05-15T22:08:00.668Z,10.77
2018-05-15T22:10:28.189Z,8.50
2018-05-15T22:13:09.628Z,32.43
2018-05-15T22:15:48.922Z,13.47
2018-05-15T22:18:28.124Z,7.77
2018-05-15T22:21:07.548Z,11.37
2018-05-15T22:23:34.596Z,12.63
2018-05-15T22:26:02.157Z,19.93
2018-05-15T22:28:29.683Z,12.50
2018-05-15T22:30:57.228Z,9.97
2018-05-15T22:33:24.753Z,9.00
2018-05-15T22:35:52.281Z,8.40
2018-05-15T22:38:19.825Z,9.30
2018-05-15T22:40:48.309Z,8.70
2018-05-15T22:43:15.871Z,10.27
2018-05-15T22:45:43.399Z,10.37
2018-05-15T22:48:10.957Z,6.50
2018-05-15T22:50:38.493Z,10.27
2018-05-15T22:53:06.058Z,9.70
2018-05-15T22:55:34.528Z,9.93
2018-05-15T22:58:04.699Z,6.20
2018-05-15T23:00:32.273Z,10.67
2018-05-15T23:02:59.950Z,7.70
2018-05-15T23:05:27.522Z,9.33
2018-05-15T23:07:55.044Z,11.23
2018-05-15T23:10:22.589Z,9.37
2018-05-15T23:12:51.194Z,9.97
2018-05-15T23:15:18.727Z,9.53
2018-05-15T23:17:46.286Z,12.10
2018-05-15T23:20:13.809Z,6.80
2018-05-15T23:22:43.186Z,8.20
2018-05-15T23:25:11.668Z,15.07
2018-05-15T23:27:39.235Z,8.23
2018-05-15T23:30:06.775Z,12.67
2018-05-15T23:32:34.322Z,8.80
2018-05-15T23:35:02.473Z,9.07
2018-05-15T23:37:30.005Z,6.30
2018-05-15T23:39:58.331Z,9.23
2018-05-15T23:42:25.861Z,12.17
2018-05-15T23:44:54.177Z,7.60
2018-05-15T23:47:21.696Z,8.80
2018-05-15T23:49:50.017Z,9.43
2018-05-15T23:52:17.538Z,12.13
2018-05-15T23:54:45.100Z,13.17
2018-05-15T23:57:12.661Z,8.47
2018-05-15T23:59:40.185Z,8.00
